sensor_id;sensor_type;location;lat;lon;timestamp;pressure;altitude;pressure_sealevel;temperature;humidity
32243;BME280;18731;42.830;24.390;2023-04-02T03:02:17;93510.53;;;6.97;86.43
32243;BME280;18731;42.830;24.390;2023-04-02T03:04:51;93504.69;;;7.03;85.91
32243;BME280;18731;42.830;24.390;2023-04-02T03:07:19;93510.22;;;6.98;86.13
32243;BME280;18731;42.830;24.390;2023-04-02T03:10:22;93511.19;;;6.94;86.39
32243;BME280;18731;42.830;24.390;2023-04-02T03:13:21;93514.66;;;7.06;86.19
32243;BME280;18731;42.830;24.390;2023-04-02T03:18:46;93526.03;;;7.07;85.88
32243;BME280;18731;42.830;24.390;2023-04-02T03:21:38;93526.56;;;7.00;85.96
32243;BME280;18731;42.830;24.390;2023-04-02T03:26:48;93540.53;;;7.09;85.27
32243;BME280;18731;42.830;24.390;2023-04-02T03:29:25;93535.66;;;7.12;85.41
32243;BME280;18731;42.830;24.390;2023-04-02T03:32:13;93535.34;;;7.13;84.14
32243;BME280;18731;42.830;24.390;2023-04-02T03:34:46;93541.53;;;7.17;84.29
32243;BME280;18731;42.830;24.390;2023-04-02T03:37:21;93531.69;;;7.18;84.79
32243;BME280;18731;42.830;24.390;2023-04-02T03:40:07;93540.13;;;7.32;84.40
32243;BME280;18731;42.830;24.390;2023-04-02T03:42:47;93537.69;;;7.27;84.36
32243;BME280;18731;42.830;24.390;2023-04-02T03:45:26;93533.72;;;7.33;83.87
32243;BME280;18731;42.830;24.390;2023-04-02T03:50:32;93548.56;;;7.46;81.52
32243;BME280;18731;42.830;24.390;2023-04-02T03:52:59;93554.31;;;7.48;81.67
32243;BME280;18731;42.830;24.390;2023-04-02T03:55:30;93548.66;;;7.50;81.78
32243;BME280;18731;42.830;24.390;2023-04-02T03:58:23;93556.06;;;7.44;81.85
32243;BME280;18731;42.830;24.390;2023-04-02T04:01:00;93564.47;;;7.46;81.97
32243;BME280;18731;42.830;24.390;2023-04-02T04:03:36;93557.63;;;7.45;81.76
32243;BME280;18731;42.830;24.390;2023-04-02T04:06:10;93565.25;;;7.47;81.77
32243;BME280;18731;42.830;24.390;2023-04-02T04:09:29;93580.63;;;7.53;81.38
32243;BME280;18731;42.830;24.390;2023-04-02T04:11:32;93563.16;;;7.40;81.48
32243;BME280;18731;42.830;24.390;2023-04-02T04:14:11;93580.41;;;7.46;81.33
32243;BME280;18731;42.830;24.390;2023-04-02T04:17:00;93585.06;;;7.49;81.44
32243;BME280;18731;42.830;24.390;2023-04-02T04:22:15;93591.03;;;7.46;80.75
32243;BME280;18731;42.830;24.390;2023-04-02T04:24:46;93595.22;;;7.47;81.32
32243;BME280;18731;42.830;24.390;2023-04-02T04:30:29;93594.78;;;7.45;81.62
32243;BME280;18731;42.830;24.390;2023-04-02T04:33:04;93603.44;;;7.54;81.56
32243;BME280;18731;42.830;24.390;2023-04-02T04:35:43;93605.19;;;7.50;80.78
32243;BME280;18731;42.830;24.390;2023-04-02T04:38:35;93605.75;;;7.56;80.67
32243;BME280;18731;42.830;24.390;2023-04-02T04:41:16;93612.16;;;7.55;80.52
32243;BME280;18731;42.830;24.390;2023-04-02T04:46:56;93616.38;;;7.56;80.96
32243;BME280;18731;42.830;24.390;2023-04-02T04:51:59;93614.16;;;7.58;80.29
32243;BME280;18731;42.830;24.390;2023-04-02T04:54:30;93614.41;;;7.65;79.91
32243;BME280;18731;42.830;24.390;2023-04-02T04:57:00;93621.16;;;7.62;79.73
32243;BME280;18731;42.830;24.390;2023-04-02T04:59:28;93621.59;;;7.64;79.76
32243;BME280;18731;42.830;24.390;2023-04-02T05:02:23;93631.78;;;7.62;80.28
32243;BME280;18731;42.830;24.390;2023-04-02T05:04:51;93627.44;;;7.58;80.08
32243;BME280;18731;42.830;24.390;2023-04-02T05:07:26;93635.53;;;7.61;80.06
32243;BME280;18731;42.830;24.390;2023-04-02T05:16:09;93628.91;;;7.67;80.00
32243;BME280;18731;42.830;24.390;2023-04-02T05:18:42;93633.31;;;7.63;80.20
32243;BME280;18731;42.830;24.390;2023-04-02T05:21:27;93636.53;;;7.69;79.83
32243;BME280;18731;42.830;24.390;2023-04-02T05:24:15;93642.38;;;7.62;79.39
32243;BME280;18731;42.830;24.390;2023-04-02T05:26:50;93645.38;;;7.61;78.47
32243;BME280;18731;42.830;24.390;2023-04-02T05:29:21;93652.25;;;7.62;78.44
32243;BME280;18731;42.830;24.390;2023-04-02T05:34:28;93652.41;;;7.45;79.54
32243;BME280;18731;42.830;24.390;2023-04-02T05:36:56;93652.97;;;7.50;79.24
32243;BME280;18731;42.830;24.390;2023-04-02T05:39:24;93657.06;;;7.48;78.88
32243;BME280;18731;42.830;24.390;2023-04-02T05:44:38;93664.97;;;7.68;78.93
32243;BME280;18731;42.830;24.390;2023-04-02T05:47:12;93660.13;;;7.70;78.74
32243;BME280;18731;42.830;24.390;2023-04-02T05:49:41;93654.13;;;7.73;78.95
32243;BME280;18731;42.830;24.390;2023-04-02T05:52:19;93661.25;;;7.82;78.90
32243;BME280;18731;42.830;24.390;2023-04-02T05:57:59;93638.47;;;7.81;79.64
32243;BME280;18731;42.830;24.390;2023-04-02T06:01:41;93664.72;;;8.06;80.35
32243;BME280;18731;42.830;24.390;2023-04-02T06:03:42;93679.47;;;8.16;79.66
32243;BME280;18731;42.830;24.390;2023-04-02T06:06:16;93674.59;;;8.30;79.82
32243;BME280;18731;42.830;24.390;2023-04-02T06:08:50;93679.03;;;8.51;78.85
32243;BME280;18731;42.830;24.390;2023-04-02T06:11:26;93658.66;;;8.55;78.82
32243;BME280;18731;42.830;24.390;2023-04-02T06:13:54;93682.97;;;8.93;75.93
32243;BME280;18731;42.830;24.390;2023-04-02T06:16:25;93679.34;;;9.14;75.61
32243;BME280;18731;42.830;24.390;2023-04-02T06:18:51;93682.94;;;9.33;73.29
32243;BME280;18731;42.830;24.390;2023-04-02T06:21:19;93686.56;;;9.41;72.82
32243;BME280;18731;42.830;24.390;2023-04-02T06:23:49;93685.09;;;9.72;71.92
32243;BME280;18731;42.830;24.390;2023-04-02T06:32:01;93689.47;;;10.55;65.30
32243;BME280;18731;42.830;24.390;2023-04-02T06:34:28;93688.88;;;10.46;63.33
32243;BME280;18731;42.830;24.390;2023-04-02T06:36:58;93689.47;;;10.55;63.12
32243;BME280;18731;42.830;24.390;2023-04-02T06:39:26;93685.16;;;10.66;63.73
32243;BME280;18731;42.830;24.390;2023-04-02T06:41:59;93682.53;;;10.85;63.07
32243;BME280;18731;42.830;24.390;2023-04-02T06:44:29;93683.88;;;10.95;61.88
32243;BME280;18731;42.830;24.390;2023-04-02T06:46:58;93682.97;;;11.07;60.99
32243;BME280;18731;42.830;24.390;2023-04-02T06:49:37;93679.88;;;11.05;60.62
32243;BME280;18731;42.830;24.390;2023-04-02T06:52:12;93690.16;;;11.03;59.98
32243;BME280;18731;42.830;24.390;2023-04-02T06:54:39;93684.31;;;11.16;59.94
32243;BME280;18731;42.830;24.390;2023-04-02T06:57:05;93680.19;;;11.19;59.96
32243;BME280;18731;42.830;24.390;2023-04-02T06:59:32;93686.94;;;11.32;59.63
32243;BME280;18731;42.830;24.390;2023-04-02T07:02:01;93690.66;;;11.47;60.28
32243;BME280;18731;42.830;24.390;2023-04-02T07:04:28;93679.59;;;11.68;62.62
32243;BME280;18731;42.830;24.390;2023-04-02T07:06:54;93681.75;;;12.01;61.26
32243;BME280;18731;42.830;24.390;2023-04-02T07:09:20;93663.44;;;12.26;58.22
32243;BME280;18731;42.830;24.390;2023-04-02T07:11:46;93680.56;;;12.70;56.93
32243;BME280;18731;42.830;24.390;2023-04-02T07:14:13;93684.28;;;13.15;54.38
32243;BME280;18731;42.830;24.390;2023-04-02T07:16:40;93679.06;;;13.56;52.06
32243;BME280;18731;42.830;24.390;2023-04-02T07:19:16;93690.66;;;14.00;50.27
32243;BME280;18731;42.830;24.390;2023-04-02T07:21:42;93680.16;;;14.25;47.65
32243;BME280;18731;42.830;24.390;2023-04-02T07:24:07;93679.44;;;14.32;47.89
32243;BME280;18731;42.830;24.390;2023-04-02T07:26:33;93689.47;;;14.38;46.28
32243;BME280;18731;42.830;24.390;2023-04-02T07:28:59;93693.59;;;14.69;48.50
32243;BME280;18731;42.830;24.390;2023-04-02T07:31:26;93690.63;;;14.85;44.70
32243;BME280;18731;42.830;24.390;2023-04-02T07:33:55;93686.19;;;15.10;46.66
32243;BME280;18731;42.830;24.390;2023-04-02T07:36:23;93684.78;;;15.34;42.37
32243;BME280;18731;42.830;24.390;2023-04-02T07:38:49;93682.66;;;15.61;45.05
32243;BME280;18731;42.830;24.390;2023-04-02T07:41:15;93692.75;;;15.96;43.76
32243;BME280;18731;42.830;24.390;2023-04-02T07:43:42;93692.41;;;16.12;43.88
32243;BME280;18731;42.830;24.390;2023-04-02T07:46:09;93676.25;;;16.08;41.20
32243;BME280;18731;42.830;24.390;2023-04-02T07:48:35;93688.56;;;16.13;42.10
32243;BME280;18731;42.830;24.390;2023-04-02T07:51:01;93688.91;;;16.04;41.44
32243;BME280;18731;42.830;24.390;2023-04-02T07:53:33;93694.69;;;16.10;40.69
32243;BME280;18731;42.830;24.390;2023-04-02T07:56:00;93684.13;;;15.59;39.71
32243;BME280;18731;42.830;24.390;2023-04-02T07:58:29;93689.44;;;15.44;39.86
32243;BME280;18731;42.830;24.390;2023-04-02T08:00:55;93687.22;;;15.57;41.87
32243;BME280;18731;42.830;24.390;2023-04-02T08:03:21;93681.97;;;15.93;41.75
32243;BME280;18731;42.830;24.390;2023-04-02T08:05:55;93669.72;;;16.31;39.63
32243;BME280;18731;42.830;24.390;2023-04-02T08:08:22;93672.03;;;16.15;39.37
32243;BME280;18731;42.830;24.390;2023-04-02T08:10:48;93676.59;;;15.96;39.83
32243;BME280;18731;42.830;24.390;2023-04-02T08:13:15;93681.59;;;15.91;39.60
32243;BME280;18731;42.830;24.390;2023-04-02T08:15:42;93682.38;;;15.95;41.44
32243;BME280;18731;42.830;24.390;2023-04-02T08:18:08;93685.13;;;16.27;39.36
32243;BME280;18731;42.830;24.390;2023-04-02T08:20:34;93687.44;;;16.57;41.04
32243;BME280;18731;42.830;24.390;2023-04-02T08:23:01;93690.94;;;16.75;40.29
32243;BME280;18731;42.830;24.390;2023-04-02T08:25:27;93683.63;;;16.90;38.13
32243;BME280;18731;42.830;24.390;2023-04-02T08:27:53;93687.41;;;17.28;40.31
32243;BME280;18731;42.830;24.390;2023-04-02T08:30:19;93682.69;;;17.57;39.13
32243;BME280;18731;42.830;24.390;2023-04-02T08:32:45;93687.72;;;17.48;37.40
32243;BME280;18731;42.830;24.390;2023-04-02T08:35:14;93684.97;;;17.62;37.04
32243;BME280;18731;42.830;24.390;2023-04-02T08:37:41;93681.22;;;17.31;37.29
32243;BME280;18731;42.830;24.390;2023-04-02T08:40:17;93691.28;;;17.09;37.74
32243;BME280;18731;42.830;24.390;2023-04-02T08:43:38;93695.13;;;17.15;35.99
32243;BME280;18731;42.830;24.390;2023-04-02T08:46:16;93698.91;;;17.43;36.54
32243;BME280;18731;42.830;24.390;2023-04-02T08:48:48;93703.25;;;16.94;38.15
32243;BME280;18731;42.830;24.390;2023-04-02T08:51:23;93698.97;;;16.43;38.38
32243;BME280;18731;42.830;24.390;2023-04-02T08:53:59;93702.41;;;16.12;37.82
32243;BME280;18731;42.830;24.390;2023-04-02T08:56:32;93700.47;;;16.08;39.05
32243;BME280;18731;42.830;24.390;2023-04-02T08:59:08;93696.66;;;16.24;39.07
32243;BME280;18731;42.830;24.390;2023-04-02T09:02:00;93705.78;;;15.87;39.73
32243;BME280;18731;42.830;24.390;2023-04-02T09:04:27;93701.16;;;15.77;40.12
32243;BME280;18731;42.830;24.390;2023-04-02T09:06:54;93704.19;;;15.68;39.41
32243;BME280;18731;42.830;24.390;2023-04-02T09:09:21;93710.75;;;15.74;39.23
32243;BME280;18731;42.830;24.390;2023-04-02T09:11:57;93701.09;;;15.63;39.47
32243;BME280;18731;42.830;24.390;2023-04-02T09:15:05;93704.19;;;15.65;39.57
32243;BME280;18731;42.830;24.390;2023-04-02T09:17:37;93691.91;;;15.71;39.62
32243;BME280;18731;42.830;24.390;2023-04-02T09:22:44;93702.44;;;16.26;38.01
32243;BME280;18731;42.830;24.390;2023-04-02T09:25:16;93697.00;;;16.08;nan
32243;BME280;18731;42.830;24.390;2023-04-02T09:27:47;93701.28;;;16.27;38.52
32243;BME280;18731;42.830;24.390;2023-04-02T09:33:03;93695.47;;;16.07;37.18
32243;BME280;18731;42.830;24.390;2023-04-02T09:35:34;93694.63;;;15.85;37.82
32243;BME280;18731;42.830;24.390;2023-04-02T09:41:19;93691.16;;;15.74;38.23
32243;BME280;18731;42.830;24.390;2023-04-02T09:43:23;93688.94;;;16.08;41.71
32243;BME280;18731;42.830;24.390;2023-04-02T09:46:21;93684.38;;;16.44;36.99
32243;BME280;18731;42.830;24.390;2023-04-02T09:48:58;93675.88;;;16.17;38.00
32243;BME280;18731;42.830;24.390;2023-04-02T09:51:31;93695.47;;;16.11;36.81
32243;BME280;18731;42.830;24.390;2023-04-02T09:56:31;93682.00;;;16.00;36.68
32243;BME280;18731;42.830;24.390;2023-04-02T09:59:15;93681.22;;;15.92;36.40
32243;BME280;18731;42.830;24.390;2023-04-02T10:01:44;93680.41;;;15.78;37.22
32243;BME280;18731;42.830;24.390;2023-04-02T10:04:45;93675.81;;;15.89;37.49
32243;BME280;18731;42.830;24.390;2023-04-02T10:12:42;93674.31;;;17.19;33.77
32243;BME280;18731;42.830;24.390;2023-04-02T10:15:21;93658.94;;;17.02;34.75
32243;BME280;18731;42.830;24.390;2023-04-02T10:17:58;93670.38;;;17.52;36.78
32243;BME280;18731;42.830;24.390;2023-04-02T10:20:25;93673.13;;;17.34;34.07
32243;BME280;18731;42.830;24.390;2023-04-02T10:22:54;93666.97;;;17.30;35.53
32243;BME280;18731;42.830;24.390;2023-04-02T10:25:23;93659.59;;;17.49;35.02
32243;BME280;18731;42.830;24.390;2023-04-02T10:28:07;93650.00;;;18.17;36.32
32243;BME280;18731;42.830;24.390;2023-04-02T10:31:16;93653.09;;;18.23;34.75
32243;BME280;18731;42.830;24.390;2023-04-02T10:33:49;93662.41;;;18.08;36.73
32243;BME280;18731;42.830;24.390;2023-04-02T10:36:54;93664.22;;;18.84;35.91
32243;BME280;18731;42.830;24.390;2023-04-02T10:39:34;93662.75;;;18.76;36.52
32243;BME280;18731;42.830;24.390;2023-04-02T10:42:18;93660.63;;;18.49;32.57
32243;BME280;18731;42.830;24.390;2023-04-02T10:53:17;93651.81;;;19.27;32.38
32243;BME280;18731;42.830;24.390;2023-04-02T10:55:52;93655.09;;;19.46;30.99
32243;BME280;18731;42.830;24.390;2023-04-02T11:00:51;93637.69;;;19.47;31.42
32243;BME280;18731;42.830;24.390;2023-04-02T11:03:37;93639.34;;;19.00;32.30
32243;BME280;18731;42.830;24.390;2023-04-02T11:06:27;93645.84;;;18.65;31.94
32243;BME280;18731;42.830;24.390;2023-04-02T11:08:59;93638.22;;;18.97;32.99
32243;BME280;18731;42.830;24.390;2023-04-02T11:11:40;93635.78;;;18.69;31.61
32243;BME280;18731;42.830;24.390;2023-04-02T11:14:16;93631.06;;;18.80;32.44
32243;BME280;18731;42.830;24.390;2023-04-02T11:16:47;93628.13;;;18.56;32.12
32243;BME280;18731;42.830;24.390;2023-04-02T11:27:05;93633.16;;;17.01;32.81
32243;BME280;18731;42.830;24.390;2023-04-02T11:29:32;93637.81;;;16.79;34.38
32243;BME280;18731;42.830;24.390;2023-04-02T11:37:39;93632.03;;;16.74;34.87
32243;BME280;18731;42.830;24.390;2023-04-02T11:42:48;93636.28;;;16.67;34.48
32243;BME280;18731;42.830;24.390;2023-04-02T11:53:00;93626.28;;;16.75;34.48
32243;BME280;18731;42.830;24.390;2023-04-02T11:55:33;93606.19;;;16.97;34.66
32243;BME280;18731;42.830;24.390;2023-04-02T12:09:29;93606.59;;;18.46;32.43
32243;BME280;18731;42.830;24.390;2023-04-02T12:11:59;93608.69;;;18.27;32.83
32243;BME280;18731;42.830;24.390;2023-04-02T12:17:01;93607.91;;;17.54;32.14
32243;BME280;18731;42.830;24.390;2023-04-02T12:19:28;93597.34;;;16.97;32.87
32243;BME280;18731;42.830;24.390;2023-04-02T12:21:56;93610.47;;;16.84;33.73
32243;BME280;18731;42.830;24.390;2023-04-02T12:24:25;93607.41;;;16.54;34.27
32243;BME280;18731;42.830;24.390;2023-04-02T12:27:20;93614.31;;;16.83;33.44
32243;BME280;18731;42.830;24.390;2023-04-02T12:29:49;93611.25;;;16.78;33.90
32243;BME280;18731;42.830;24.390;2023-04-02T12:32:27;93606.63;;;16.64;32.37
32243;BME280;18731;42.830;24.390;2023-04-02T12:34:54;93611.13;;;17.27;32.61
32243;BME280;18731;42.830;24.390;2023-04-02T12:37:28;93610.81;;;17.95;32.99
32243;BME280;18731;42.830;24.390;2023-04-02T12:39:57;93612.03;;;18.42;32.75
32243;BME280;18731;42.830;24.390;2023-04-02T12:42:31;93610.25;;;18.25;30.48
32243;BME280;18731;42.830;24.390;2023-04-02T12:44:59;93608.56;;;17.83;31.19
32243;BME280;18731;42.830;24.390;2023-04-02T12:47:25;93607.09;;;17.64;31.92
32243;BME280;18731;42.830;24.390;2023-04-02T12:49:52;93605.63;;;17.52;31.65
32243;BME280;18731;42.830;24.390;2023-04-02T12:52:20;93603.75;;;17.39;32.15
32243;BME280;18731;42.830;24.390;2023-04-02T12:54:57;93603.28;;;17.54;34.17
32243;BME280;18731;42.830;24.390;2023-04-02T12:59:51;93598.41;;;18.05;34.76
32243;BME280;18731;42.830;24.390;2023-04-02T13:02:25;93585.63;;;18.64;32.76
32243;BME280;18731;42.830;24.390;2023-04-02T13:04:52;93596.53;;;19.28;29.63
32243;BME280;18731;42.830;24.390;2023-04-02T13:07:20;93569.84;;;18.55;30.83
32243;BME280;18731;42.830;24.390;2023-04-02T13:09:49;93603.63;;;18.33;31.20
32243;BME280;18731;42.830;24.390;2023-04-02T13:14:58;93602.28;;;18.55;32.39
32243;BME280;18731;42.830;24.390;2023-04-02T13:17:41;93600.97;;;18.26;31.99
32243;BME280;18731;42.830;24.390;2023-04-02T13:22:52;93608.75;;;17.44;33.05
32243;BME280;18731;42.830;24.390;2023-04-02T13:25:18;93585.97;;;17.48;33.59
32243;BME280;18731;42.830;24.390;2023-04-02T13:27:46;93593.22;;;17.65;33.65
32243;BME280;18731;42.830;24.390;2023-04-02T13:30:21;93598.84;;;17.12;33.54
32243;BME280;18731;42.830;24.390;2023-04-02T13:32:47;93580.41;;;16.96;34.07
32243;BME280;18731;42.830;24.390;2023-04-02T13:35:13;93592.00;;;16.79;34.39
32243;BME280;18731;42.830;24.390;2023-04-02T13:37:38;93597.78;;;16.81;34.68
32243;BME280;18731;42.830;24.390;2023-04-02T13:40:04;93606.63;;;16.53;34.53
32243;BME280;18731;42.830;24.390;2023-04-02T13:42:31;93601.25;;;16.21;35.54
32243;BME280;18731;42.830;24.390;2023-04-02T13:44:56;93606.63;;;16.03;36.68
32243;BME280;18731;42.830;24.390;2023-04-02T13:47:22;93605.09;;;15.88;36.31
32243;BME280;18731;42.830;24.390;2023-04-02T13:49:49;93600.84;;;15.84;36.05
32243;BME280;18731;42.830;24.390;2023-04-02T13:52:17;93599.69;;;15.74;36.94
32243;BME280;18731;42.830;24.390;2023-04-02T13:54:48;93608.50;;;15.74;36.76
32243;BME280;18731;42.830;24.390;2023-04-02T13:57:15;93598.13;;;15.66;37.43
32243;BME280;18731;42.830;24.390;2023-04-02T13:59:40;93604.31;;;15.81;37.60
32243;BME280;18731;42.830;24.390;2023-04-02T14:02:16;93590.84;;;15.73;36.75
32243;BME280;18731;42.830;24.390;2023-04-02T14:04:44;93602.38;;;15.74;36.50
32243;BME280;18731;42.830;24.390;2023-04-02T14:12:45;93614.31;;;15.91;36.62
32243;BME280;18731;42.830;24.390;2023-04-02T14:18:08;93601.25;;;16.32;36.79
32243;BME280;18731;42.830;24.390;2023-04-02T14:21:39;93601.38;;;17.51;34.99
32243;BME280;18731;42.830;24.390;2023-04-02T14:31:39;93593.19;;;17.76;32.45
32243;BME280;18731;42.830;24.390;2023-04-02T14:37:05;93608.72;;;18.17;33.28
32243;BME280;18731;42.830;24.390;2023-04-02T14:47:54;93595.88;;;19.55;31.17
32243;BME280;18731;42.830;24.390;2023-04-02T14:50:52;93597.41;;;19.22;31.03
32243;BME280;18731;42.830;24.390;2023-04-02T14:53:28;93593.88;;;18.91;31.39
32243;BME280;18731;42.830;24.390;2023-04-02T14:55:56;93606.56;;;18.49;32.02
32243;BME280;18731;42.830;24.390;2023-04-02T15:01:10;93612.25;;;17.33;34.04
32243;BME280;18731;42.830;24.390;2023-04-02T15:03:54;93620.44;;;17.01;34.59
32243;BME280;18731;42.830;24.390;2023-04-02T15:06:25;93625.09;;;16.83;35.69
32243;BME280;18731;42.830;24.390;2023-04-02T15:09:10;93615.09;;;16.55;36.49
32243;BME280;18731;42.830;24.390;2023-04-02T15:11:44;93611.66;;;16.40;37.68
32243;BME280;18731;42.830;24.390;2023-04-02T15:14:34;93623.56;;;16.25;37.62
32243;BME280;18731;42.830;24.390;2023-04-02T15:17:01;93632.41;;;16.47;38.00
32243;BME280;18731;42.830;24.390;2023-04-02T15:19:27;93620.09;;;16.46;38.01
32243;BME280;18731;42.830;24.390;2023-04-02T15:28:11;93628.91;;;15.90;39.42
32243;BME280;18731;42.830;24.390;2023-04-02T15:30:44;93628.91;;;15.93;38.71
32243;BME280;18731;42.830;24.390;2023-04-02T15:38:51;93623.53;;;15.93;38.29
32243;BME280;18731;42.830;24.390;2023-04-02T15:41:26;93628.91;;;15.93;39.14
32243;BME280;18731;42.830;24.390;2023-04-02T15:44:29;93638.94;;;15.96;39.07
32243;BME280;18731;42.830;24.390;2023-04-02T15:49:42;93635.06;;;15.83;38.13
32243;BME280;18731;42.830;24.390;2023-04-02T16:03:28;93650.19;;;15.29;41.20
32243;BME280;18731;42.830;24.390;2023-04-02T16:06:15;93650.16;;;15.22;39.85
32243;BME280;18731;42.830;24.390;2023-04-02T16:08:55;93652.34;;;15.02;40.77
32243;BME280;18731;42.830;24.390;2023-04-02T16:11:25;93660.72;;;14.87;40.97
32243;BME280;18731;42.830;24.390;2023-04-02T16:14:00;93654.09;;;14.73;43.15
32243;BME280;18731;42.830;24.390;2023-04-02T16:16:34;93652.84;;;14.60;43.60
32243;BME280;18731;42.830;24.390;2023-04-02T16:22:02;93670.41;;;14.06;46.04
32243;BME280;18731;42.830;24.390;2023-04-02T16:24:29;93671.09;;;14.00;47.85
32243;BME280;18731;42.830;24.390;2023-04-02T16:43:32;93696.63;;;13.19;50.58
32243;BME280;18731;42.830;24.390;2023-04-02T16:48:53;93710.69;;;12.90;52.49
32243;BME280;18731;42.830;24.390;2023-04-02T16:51:39;93709.09;;;12.85;50.32
32243;BME280;18731;42.830;24.390;2023-04-02T17:05:30;93724.72;;;12.11;52.89
32243;BME280;18731;42.830;24.390;2023-04-02T17:08:20;93723.47;;;12.05;52.95
32243;BME280;18731;42.830;24.390;2023-04-02T17:10:50;93729.13;;;12.00;53.03
32243;BME280;18731;42.830;24.390;2023-04-02T17:16:20;93730.81;;;11.70;55.63
32243;BME280;18731;42.830;24.390;2023-04-02T17:18:50;93736.88;;;11.67;55.67
32243;BME280;18731;42.830;24.390;2023-04-02T17:21:23;93739.41;;;11.59;55.05
32243;BME280;18731;42.830;24.390;2023-04-02T17:24:23;93744.88;;;11.47;55.39
32243;BME280;18731;42.830;24.390;2023-04-02T17:26:49;93755.69;;;11.35;56.57
32243;BME280;18731;42.830;24.390;2023-04-02T17:29:24;93755.97;;;11.30;56.89
32243;BME280;18731;42.830;24.390;2023-04-02T17:31:52;93759.19;;;11.20;57.29
32243;BME280;18731;42.830;24.390;2023-04-02T17:34:18;93770.91;;;11.15;57.05
32243;BME280;18731;42.830;24.390;2023-04-02T17:39:24;93777.56;;;11.06;57.06
32243;BME280;18731;42.830;24.390;2023-04-02T17:42:12;93780.84;;;10.99;57.52
32243;BME280;18731;42.830;24.390;2023-04-02T17:44:54;93786.28;;;10.87;57.63
32243;BME280;18731;42.830;24.390;2023-04-02T17:47:42;93794.91;;;10.80;58.21
32243;BME280;18731;42.830;24.390;2023-04-02T17:52:56;93798.78;;;10.51;58.32
32243;BME280;18731;42.830;24.390;2023-04-02T17:58:30;93817.81;;;10.50;58.25
32243;BME280;18731;42.830;24.390;2023-04-02T18:03:57;93829.88;;;10.31;59.59
32243;BME280;18731;42.830;24.390;2023-04-02T18:12:26;93839.75;;;10.03;60.92
32243;BME280;18731;42.830;24.390;2023-04-02T18:15:08;93850.22;;;9.96;60.68
32243;BME280;18731;42.830;24.390;2023-04-02T18:20:33;93852.78;;;9.52;61.90
32243;BME280;18731;42.830;24.390;2023-04-02T18:23:14;93865.22;;;9.60;61.71
32243;BME280;18731;42.830;24.390;2023-04-02T18:31:06;93871.25;;;9.33;63.74
32243;BME280;18731;42.830;24.390;2023-04-02T18:41:33;93892.88;;;9.19;64.50
32243;BME280;18731;42.830;24.390;2023-04-02T18:51:52;93893.09;;;9.14;63.76
32243;BME280;18731;42.830;24.390;2023-04-02T18:54:28;93898.75;;;9.13;63.82
32243;BME280;18731;42.830;24.390;2023-04-02T18:56:57;93904.75;;;9.10;64.17
32243;BME280;18731;42.830;24.390;2023-04-02T19:04:52;93895.63;;;8.86;64.90
32243;BME280;18731;42.830;24.390;2023-04-02T19:07:22;93907.63;;;8.92;65.04
32243;BME280;18731;42.830;24.390;2023-04-02T19:09:50;93914.03;;;8.91;65.04
32243;BME280;18731;42.830;24.390;2023-04-02T19:12:18;93901.41;;;8.88;65.18
32243;BME280;18731;42.830;24.390;2023-04-02T19:14:45;93907.81;;;8.75;66.12
32243;BME280;18731;42.830;24.390;2023-04-02T19:17:36;93927.31;;;8.79;65.67
32243;BME280;18731;42.830;24.390;2023-04-02T19:28:28;93932.75;;;8.70;65.69
32243;BME280;18731;42.830;24.390;2023-04-02T19:31:09;93928.38;;;8.54;66.50
32243;BME280;18731;42.830;24.390;2023-04-02T19:33:47;93930.25;;;8.53;66.44
32243;BME280;18731;42.830;24.390;2023-04-02T19:36:47;93943.69;;;8.57;66.10
32243;BME280;18731;42.830;24.390;2023-04-02T19:44:32;93941.81;;;8.36;66.92
32243;BME280;18731;42.830;24.390;2023-04-02T19:46:58;93949.84;;;8.28;66.82
32243;BME280;18731;42.830;24.390;2023-04-02T19:49:27;93936.97;;;8.18;66.85
32243;BME280;18731;42.830;24.390;2023-04-02T19:51:53;93953.16;;;8.25;66.67
32243;BME280;18731;42.830;24.390;2023-04-02T19:54:21;93961.66;;;8.18;67.65
32243;BME280;18731;42.830;24.390;2023-04-02T19:56:47;93965.41;;;8.17;66.45
32243;BME280;18731;42.830;24.390;2023-04-02T19:59:12;93957.84;;;8.07;67.02
32243;BME280;18731;42.830;24.390;2023-04-02T20:01:38;93970.75;;;8.17;66.59
32243;BME280;18731;42.830;24.390;2023-04-02T20:04:04;93972.03;;;8.11;67.13
32243;BME280;18731;42.830;24.390;2023-04-02T20:06:30;93960.50;;;8.07;66.90
32243;BME280;18731;42.830;24.390;2023-04-02T20:08:57;93963.59;;;8.09;67.36
32243;BME280;18731;42.830;24.390;2023-04-02T20:11:24;93964.19;;;7.94;68.25
32243;BME280;18731;42.830;24.390;2023-04-02T20:13:51;93963.09;;;7.95;68.45
32243;BME280;18731;42.830;24.390;2023-04-02T20:16:18;93972.41;;;8.01;68.05
32243;BME280;18731;42.830;24.390;2023-04-02T20:18:44;93969.63;;;7.97;68.54
32243;BME280;18731;42.830;24.390;2023-04-02T20:21:10;93968.84;;;7.97;68.45
32243;BME280;18731;42.830;24.390;2023-04-02T20:23:36;93966.06;;;7.93;68.91
32243;BME280;18731;42.830;24.390;2023-04-02T20:26:02;93948.78;;;7.79;68.95
32243;BME280;18731;42.830;24.390;2023-04-02T20:28:29;93978.38;;;7.98;69.30
32243;BME280;18731;42.830;24.390;2023-04-02T20:31:17;93970.59;;;7.93;69.39
32243;BME280;18731;42.830;24.390;2023-04-02T20:33:43;93976.25;;;7.91;69.28
32243;BME280;18731;42.830;24.390;2023-04-02T20:36:11;93958.03;;;7.72;70.15
32243;BME280;18731;42.830;24.390;2023-04-02T20:38:37;93975.22;;;7.75;70.28
32243;BME280;18731;42.830;24.390;2023-04-02T20:41:04;93977.22;;;7.87;69.25
32243;BME280;18731;42.830;24.390;2023-04-02T20:43:30;93975.19;;;7.84;68.91
32243;BME280;18731;42.830;24.390;2023-04-02T20:45:57;93956.94;;;7.73;69.45
32243;BME280;18731;42.830;24.390;2023-04-02T20:48:24;93971.91;;;7.87;69.43
32243;BME280;18731;42.830;24.390;2023-04-02T20:50:52;93966.00;;;7.81;70.32